This is the latest recevied weather packets stored in our database for station/object OK2ZI. If no packets are shown the sender has not sent any weather packets the latest 10 day(s).
| Time | Temp. | Humidity | Pressure | Rain* | Wind** | Luminosity | Snow |
|---|---|---|---|---|---|---|---|
| 1777798327 | 20° C | 39% | 1016 hPa | 0 mm | - | - | - |
| 1777797127 | 19.44° C | 40% | 1016 hPa | 0 mm | - | - | - |
| 1777796646 | 19.44° C | 42% | 1016 hPa | 0 mm | - | - | - |
| 1777795812 | 18.33° C | 43% | 1016 hPa | 0 mm | - | - | - |
| 1777795328 | 18.33° C | 44% | 1016 hPa | 0 mm | - | - | - |
| 1777793767 | 17.78° C | 44% | 1017 hPa | 0 mm | - | - | - |
| 1777793287 | 17.22° C | 45% | 1016 hPa | 0 mm | - | - | - |
| 1777792212 | 16.11° C | 48% | 1017 hPa | 0 mm | - | - | - |
| 1777792087 | 16.11° C | 48% | 1017 hPa | 0 mm | - | - | - |
| 1777791127 | 15.56° C | 50% | 1017 hPa | 0 mm | - | - | - |
| 1777789447 | 15° C | 53% | 1016 hPa | 0 mm | - | - | - |
| 1777789327 | 15° C | 51% | 1016 hPa | 0 mm | - | - | - |
| 1777789212 | 15° C | 51% | 1016 hPa | 0 mm | - | - | - |
| 1777788127 | 13.89° C | 54% | 1016 hPa | 0 mm | - | - | - |
| 1777786567 | 13.89° C | 53% | 1016 hPa | 0 mm | - | - | - |
| 1777785611 | 12.22° C | 56% | 1016 hPa | 0 mm | - | - | - |
| 1777783686 | 7.78° C | 71% | 1016 hPa | 0 mm | - | - | - |
| 1777783446 | 7.78° C | 72% | 1016 hPa | 0 mm | - | - | - |
| 1777783327 | 7.78° C | 71% | 1016 hPa | 0 mm | - | - | - |
| 1777783086 | 7.22° C | 73% | 1016 hPa | 0 mm | - | - | - |
| 1777782126 | 8.33° C | 61% | 1016 hPa | 0 mm | - | - | - |
| 1777781647 | 6.11° C | 67% | 1016 hPa | 0 mm | - | - | - |
| 1777781411 | 5.56° C | 73% | 1016 hPa | 0 mm | - | - | - |
| 1777780210 | 4.44° C | 75% | 1016 hPa | 0 mm | - | - | - |
| 1777779366 | 5.56° C | 71% | 1016 hPa | 0 mm | - | - | - |
* Rain latest hour (hover to see other rain measurements)
** Current wind speed in m/s (hover to see current wind gust speed)